Oakdale, NY (11769)

6:48 PM EST on February 05, 2016 (GMT -0500)
Idle Hour | | Change Station
CLOSE
Current Station
Personal Weather Station
Location: Oakdale, NY
Elevation: 3 ft
Nearby Weather Stations

Elev 3 ft 40.73 °N, 73.14 °W | Updated 9 minutes ago

Clear
Clear
32.9 °F
Feels Like 27 °F
N
5.8
Wind Variable Wind from NNW

Today
High -- | Low -- °F
--% Chance of Precip.
Yesterday
High -- | Low -- °F
Precip. -- in
Pressure 30.17 in
Visibility 10.0 miles
Clouds Few 7000 ft
Windchill 27 °F
Dew Point 22 °F
Humidity 64%
Rainfall 0.29 in
Snow Depth Not available.
6:58 AM 5:14 PM
Waning Crescent, 9% visible
METAR KISP 052256Z 30010KT 10SM FEW070 01/M06 A3016 RMK AO2 SLP215 T00111061 $
Pressure 30.17 in
Visibility 10.0 miles
Clouds Few 7000 ft
Windchill 27 °F
Dew Point 22 °F
Humidity 64%
Rainfall 0.29 in
Snow Depth Not available.
6:58 AM 5:14 PM
Waning Crescent, 9% visible
METAR KISP 052256Z 30010KT 10SM FEW070 01/M06 A3016 RMK AO2 SLP215 T00111061 $

10-Day Weather Forecast

Almanac

Astronomy

Feb. 05, 2016 Rise Set
Actual Time
Civil Twilight
Nautical Twilight
Astronomical Twilight
Moon
Length of Visible Light
Length of Day
Tomorrow will be .
, % of the Moon is Illuminated

Today's Extremes

State Highs State Lows

Community

WunderPhotos

Upload Photos

1,890,880 photos uploaded!

WunderBlog® & News

Nearby

Air Quality

  Air Quality AQ Index Pollutant
Not available.

Snow Depth

Station Depth Elevation

Earthquake Activity

City Distance Mag. Time & Date
Minimum magnitude displayed is 2.5.

Coastal Water Temperatures

Place Temperature

Stations

Nearby Weather Stations

Station Location Temp. Windchill Dew Point Humidity Wind Precip. Elev Updated Type
                   

Watches & Warnings

Special Statement
Issued: 2:51 PM EST Feb. 5, 2016 – National Weather Service

... Gusty winds will continue to bring down snow laden tree limbs
and power lines into early this evening...

The heavy wet snowfall... combined with moderate northerly winds
of 10 to 20 mph with gusts into the 30s... will continue to down
tree limbs and power lines into early this evening. Those
venturing out are urged to be cognizant of this dangerous and
potentially deadly hazard.



251 PM EST Fri Feb 5 2016

... Gusty winds will continue to bring down snow laden tree limbs
and power lines into early this evening...

The heavy wet snowfall... combined with moderate northerly winds
of 10 to 20 mph with gusts into the 30s... will continue to down
tree limbs and power lines into early this evening. Those
venturing out are urged to be cognizant of this dangerous and
potentially deadly hazard.